sensor_id;sensor_type;location;lat;lon;timestamp;temperature;humidity
1994;DHT22;998;49.906;10.908;2024-03-06T00:01:15;9.20;99.90
1994;DHT22;998;49.906;10.908;2024-03-06T00:03:42;9.40;99.90
1994;DHT22;998;49.906;10.908;2024-03-06T00:06:10;9.20;99.90
1994;DHT22;998;49.906;10.908;2024-03-06T00:08:38;9.10;99.90
1994;DHT22;998;49.906;10.908;2024-03-06T00:11:06;9.10;99.90
1994;DHT22;998;49.906;10.908;2024-03-06T00:13:33;9.10;99.90
1994;DHT22;998;49.906;10.908;2024-03-06T00:16:01;9.30;99.90
1994;DHT22;998;49.906;10.908;2024-03-06T00:18:28;9.10;99.90
1994;DHT22;998;49.906;10.908;2024-03-06T00:20:56;9.10;99.90
1994;DHT22;998;49.906;10.908;2024-03-06T00:23:23;9.20;99.90
1994;DHT22;998;49.906;10.908;2024-03-06T00:25:52;9.10;99.90
1994;DHT22;998;49.906;10.908;2024-03-06T00:28:19;9.20;99.90
1994;DHT22;998;49.906;10.908;2024-03-06T00:30:47;9.10;99.90
1994;DHT22;998;49.906;10.908;2024-03-06T00:33:14;9.10;99.90
1994;DHT22;998;49.906;10.908;2024-03-06T00:35:43;9.20;99.90
1994;DHT22;998;49.906;10.908;2024-03-06T00:38:10;9.10;99.90
1994;DHT22;998;49.906;10.908;2024-03-06T00:40:39;9.10;99.90
1994;DHT22;998;49.906;10.908;2024-03-06T00:43:08;9.10;99.90
1994;DHT22;998;49.906;10.908;2024-03-06T00:45:35;9.10;99.90
1994;DHT22;998;49.906;10.908;2024-03-06T00:48:02;9.10;99.90
1994;DHT22;998;49.906;10.908;2024-03-06T00:50:30;9.10;99.90
1994;DHT22;998;49.906;10.908;2024-03-06T00:53:01;9.00;99.90
1994;DHT22;998;49.906;10.908;2024-03-06T00:55:29;9.20;99.90
1994;DHT22;998;49.906;10.908;2024-03-06T00:58:10;9.00;99.90
1994;DHT22;998;49.906;10.908;2024-03-06T01:00:46;9.00;99.90
1994;DHT22;998;49.906;10.908;2024-03-06T01:03:13;10.00;99.90
1994;DHT22;998;49.906;10.908;2024-03-06T01:05:41;9.00;99.90
1994;DHT22;998;49.906;10.908;2024-03-06T01:08:25;9.00;99.90
1994;DHT22;998;49.906;10.908;2024-03-06T01:10:53;8.90;99.90
1994;DHT22;998;49.906;10.908;2024-03-06T01:13:22;8.90;99.90
1994;DHT22;998;49.906;10.908;2024-03-06T01:15:49;8.90;99.90
1994;DHT22;998;49.906;10.908;2024-03-06T01:18:16;8.90;99.90
1994;DHT22;998;49.906;10.908;2024-03-06T01:20:44;8.90;99.90
1994;DHT22;998;49.906;10.908;2024-03-06T01:23:11;8.90;99.90
1994;DHT22;998;49.906;10.908;2024-03-06T01:25:42;8.80;99.90
1994;DHT22;998;49.906;10.908;2024-03-06T01:28:09;9.20;99.90
1994;DHT22;998;49.906;10.908;2024-03-06T01:30:38;8.90;99.90
1994;DHT22;998;49.906;10.908;2024-03-06T01:33:05;8.70;99.90
1994;DHT22;998;49.906;10.908;2024-03-06T01:35:33;8.90;99.90
1994;DHT22;998;49.906;10.908;2024-03-06T01:38:00;9.00;99.90
1994;DHT22;998;49.906;10.908;2024-03-06T01:40:28;8.80;99.90
1994;DHT22;998;49.906;10.908;2024-03-06T01:42:56;8.80;99.90
1994;DHT22;998;49.906;10.908;2024-03-06T01:45:23;8.80;99.90
1994;DHT22;998;49.906;10.908;2024-03-06T01:47:52;8.80;99.90
1994;DHT22;998;49.906;10.908;2024-03-06T01:50:18;8.80;99.90
1994;DHT22;998;49.906;10.908;2024-03-06T01:52:47;8.80;99.90
1994;DHT22;998;49.906;10.908;2024-03-06T01:55:15;8.80;99.90
1994;DHT22;998;49.906;10.908;2024-03-06T01:57:42;9.20;99.90
1994;DHT22;998;49.906;10.908;2024-03-06T02:00:12;8.80;99.90
1994;DHT22;998;49.906;10.908;2024-03-06T02:02:42;8.80;99.90
1994;DHT22;998;49.906;10.908;2024-03-06T02:05:11;8.80;99.90
1994;DHT22;998;49.906;10.908;2024-03-06T02:07:39;8.80;99.90
1994;DHT22;998;49.906;10.908;2024-03-06T02:10:07;8.80;99.90
1994;DHT22;998;49.906;10.908;2024-03-06T02:12:38;8.80;99.90
1994;DHT22;998;49.906;10.908;2024-03-06T02:15:06;9.60;99.90
1994;DHT22;998;49.906;10.908;2024-03-06T02:17:34;8.80;99.90
1994;DHT22;998;49.906;10.908;2024-03-06T02:20:02;8.70;99.90
1994;DHT22;998;49.906;10.908;2024-03-06T02:22:33;8.60;99.90
1994;DHT22;998;49.906;10.908;2024-03-06T02:25:15;8.80;99.90
1994;DHT22;998;49.906;10.908;2024-03-06T02:27:43;8.80;99.90
1994;DHT22;998;49.906;10.908;2024-03-06T02:30:22;8.80;99.90
1994;DHT22;998;49.906;10.908;2024-03-06T02:32:49;8.70;99.90
1994;DHT22;998;49.906;10.908;2024-03-06T02:35:30;8.80;99.90
1994;DHT22;998;49.906;10.908;2024-03-06T02:38:06;8.70;99.90
1994;DHT22;998;49.906;10.908;2024-03-06T02:40:33;8.90;99.90
1994;DHT22;998;49.906;10.908;2024-03-06T02:43:00;8.80;99.90
1994;DHT22;998;49.906;10.908;2024-03-06T02:45:28;8.80;99.90
1994;DHT22;998;49.906;10.908;2024-03-06T02:47:55;9.10;99.90
1994;DHT22;998;49.906;10.908;2024-03-06T02:50:24;8.90;99.90
1994;DHT22;998;49.906;10.908;2024-03-06T02:53:00;8.90;99.90
1994;DHT22;998;49.906;10.908;2024-03-06T02:55:37;8.80;99.90
1994;DHT22;998;49.906;10.908;2024-03-06T02:58:04;8.80;99.90
1994;DHT22;998;49.906;10.908;2024-03-06T03:00:31;9.10;99.90
1994;DHT22;998;49.906;10.908;2024-03-06T03:02:59;8.90;99.90
1994;DHT22;998;49.906;10.908;2024-03-06T03:05:26;8.90;99.90
1994;DHT22;998;49.906;10.908;2024-03-06T03:07:54;8.70;99.90
1994;DHT22;998;49.906;10.908;2024-03-06T03:10:22;8.60;99.90
1994;DHT22;998;49.906;10.908;2024-03-06T03:12:51;8.80;99.90
1994;DHT22;998;49.906;10.908;2024-03-06T03:15:20;8.60;99.90
1994;DHT22;998;49.906;10.908;2024-03-06T03:17:47;8.60;99.90
1994;DHT22;998;49.906;10.908;2024-03-06T03:20:15;8.80;99.90
1994;DHT22;998;49.906;10.908;2024-03-06T03:22:43;8.70;99.90
1994;DHT22;998;49.906;10.908;2024-03-06T03:25:11;8.80;99.90
1994;DHT22;998;49.906;10.908;2024-03-06T03:27:38;8.80;99.90
1994;DHT22;998;49.906;10.908;2024-03-06T03:30:09;8.80;99.90
1994;DHT22;998;49.906;10.908;2024-03-06T03:32:37;8.70;99.90
1994;DHT22;998;49.906;10.908;2024-03-06T03:35:06;8.90;99.90
1994;DHT22;998;49.906;10.908;2024-03-06T03:37:34;8.80;99.90
1994;DHT22;998;49.906;10.908;2024-03-06T03:40:01;8.90;99.90
1994;DHT22;998;49.906;10.908;2024-03-06T03:42:29;8.90;99.90
1994;DHT22;998;49.906;10.908;2024-03-06T03:44:56;8.90;99.90
1994;DHT22;998;49.906;10.908;2024-03-06T03:47:25;8.70;99.90
1994;DHT22;998;49.906;10.908;2024-03-06T03:49:53;8.80;99.90
1994;DHT22;998;49.906;10.908;2024-03-06T03:52:20;8.90;99.90
1994;DHT22;998;49.906;10.908;2024-03-06T03:54:48;8.80;99.90
1994;DHT22;998;49.906;10.908;2024-03-06T03:57:15;9.00;99.90
1994;DHT22;998;49.906;10.908;2024-03-06T03:59:43;9.00;99.90
1994;DHT22;998;49.906;10.908;2024-03-06T04:02:10;8.80;99.90
1994;DHT22;998;49.906;10.908;2024-03-06T04:04:39;8.80;99.90
1994;DHT22;998;49.906;10.908;2024-03-06T04:07:07;8.80;99.90
1994;DHT22;998;49.906;10.908;2024-03-06T04:09:34;8.70;99.90
1994;DHT22;998;49.906;10.908;2024-03-06T04:12:02;9.00;99.90
1994;DHT22;998;49.906;10.908;2024-03-06T04:14:30;8.80;99.90
1994;DHT22;998;49.906;10.908;2024-03-06T04:16:58;8.80;99.90
1994;DHT22;998;49.906;10.908;2024-03-06T04:19:25;8.80;99.90
1994;DHT22;998;49.906;10.908;2024-03-06T04:21:54;8.50;99.90
1994;DHT22;998;49.906;10.908;2024-03-06T04:24:21;8.80;99.90
1994;DHT22;998;49.906;10.908;2024-03-06T04:26:49;8.60;99.90
1994;DHT22;998;49.906;10.908;2024-03-06T04:29:16;8.70;99.90
1994;DHT22;998;49.906;10.908;2024-03-06T04:31:43;8.80;99.90
1994;DHT22;998;49.906;10.908;2024-03-06T04:34:11;8.70;99.90
1994;DHT22;998;49.906;10.908;2024-03-06T04:36:38;8.70;99.90
1994;DHT22;998;49.906;10.908;2024-03-06T04:39:07;8.70;99.90
1994;DHT22;998;49.906;10.908;2024-03-06T04:41:35;8.60;99.90
1994;DHT22;998;49.906;10.908;2024-03-06T04:44:03;8.80;99.90
1994;DHT22;998;49.906;10.908;2024-03-06T04:46:30;8.70;99.90
1994;DHT22;998;49.906;10.908;2024-03-06T04:48:58;8.80;99.90
1994;DHT22;998;49.906;10.908;2024-03-06T04:51:25;8.80;99.90
1994;DHT22;998;49.906;10.908;2024-03-06T04:53:52;8.70;99.90
1994;DHT22;998;49.906;10.908;2024-03-06T04:56:21;8.70;99.90
1994;DHT22;998;49.906;10.908;2024-03-06T04:58:49;8.70;99.90
1994;DHT22;998;49.906;10.908;2024-03-06T05:01:17;8.70;99.90
1994;DHT22;998;49.906;10.908;2024-03-06T05:03:45;8.90;99.90
1994;DHT22;998;49.906;10.908;2024-03-06T05:06:12;8.80;99.90
1994;DHT22;998;49.906;10.908;2024-03-06T05:08:39;8.80;99.90
1994;DHT22;998;49.906;10.908;2024-03-06T05:11:06;8.80;99.90
1994;DHT22;998;49.906;10.908;2024-03-06T05:13:35;8.70;99.90
1994;DHT22;998;49.906;10.908;2024-03-06T05:16:02;8.80;99.90
1994;DHT22;998;49.906;10.908;2024-03-06T05:18:30;8.70;99.90
1994;DHT22;998;49.906;10.908;2024-03-06T05:20:57;8.70;99.90
1994;DHT22;998;49.906;10.908;2024-03-06T05:23:24;8.70;99.90
1994;DHT22;998;49.906;10.908;2024-03-06T05:25:52;8.70;99.90
1994;DHT22;998;49.906;10.908;2024-03-06T05:28:19;8.70;99.90
1994;DHT22;998;49.906;10.908;2024-03-06T05:30:48;8.80;99.90
1994;DHT22;998;49.906;10.908;2024-03-06T05:33:15;8.70;99.90
1994;DHT22;998;49.906;10.908;2024-03-06T05:35:43;8.60;99.90
1994;DHT22;998;49.906;10.908;2024-03-06T05:38:10;8.60;99.90
1994;DHT22;998;49.906;10.908;2024-03-06T05:40:37;8.40;99.90
1994;DHT22;998;49.906;10.908;2024-03-06T05:43:06;8.50;99.90
1994;DHT22;998;49.906;10.908;2024-03-06T05:45:33;8.50;99.90
1994;DHT22;998;49.906;10.908;2024-03-06T05:48:03;8.50;99.90
1994;DHT22;998;49.906;10.908;2024-03-06T05:50:30;8.60;99.90
1994;DHT22;998;49.906;10.908;2024-03-06T05:52:58;8.60;99.90
1994;DHT22;998;49.906;10.908;2024-03-06T05:55:25;8.60;99.90
1994;DHT22;998;49.906;10.908;2024-03-06T05:57:53;8.60;99.90
1994;DHT22;998;49.906;10.908;2024-03-06T06:00:20;8.60;99.90
1994;DHT22;998;49.906;10.908;2024-03-06T06:02:48;8.50;99.90
1994;DHT22;998;49.906;10.908;2024-03-06T06:05:17;8.50;99.90
1994;DHT22;998;49.906;10.908;2024-03-06T06:07:46;8.60;99.90
1994;DHT22;998;49.906;10.908;2024-03-06T06:10:13;8.60;99.90
1994;DHT22;998;49.906;10.908;2024-03-06T06:12:41;8.60;99.90
1994;DHT22;998;49.906;10.908;2024-03-06T06:15:14;8.60;99.90
1994;DHT22;998;49.906;10.908;2024-03-06T06:17:42;8.60;99.90
1994;DHT22;998;49.906;10.908;2024-03-06T06:20:12;8.80;99.90
1994;DHT22;998;49.906;10.908;2024-03-06T06:22:42;8.60;99.90
1994;DHT22;998;49.906;10.908;2024-03-06T06:25:09;8.50;99.90
1994;DHT22;998;49.906;10.908;2024-03-06T06:27:37;8.60;99.90
1994;DHT22;998;49.906;10.908;2024-03-06T06:30:06;8.60;99.90
1994;DHT22;998;49.906;10.908;2024-03-06T06:32:37;8.70;99.90
1994;DHT22;998;49.906;10.908;2024-03-06T06:35:06;8.50;99.90
1994;DHT22;998;49.906;10.908;2024-03-06T06:37:35;8.40;99.90
1994;DHT22;998;49.906;10.908;2024-03-06T06:40:05;8.60;99.90
1994;DHT22;998;49.906;10.908;2024-03-06T06:42:33;8.50;99.90
1994;DHT22;998;49.906;10.908;2024-03-06T06:45:02;8.60;99.90
1994;DHT22;998;49.906;10.908;2024-03-06T06:47:30;8.60;99.90
1994;DHT22;998;49.906;10.908;2024-03-06T06:49:57;8.60;99.90
1994;DHT22;998;49.906;10.908;2024-03-06T06:52:24;8.60;99.90
1994;DHT22;998;49.906;10.908;2024-03-06T06:54:53;8.70;99.90
1994;DHT22;998;49.906;10.908;2024-03-06T06:57:22;8.70;99.90
1994;DHT22;998;49.906;10.908;2024-03-06T06:59:51;8.70;99.90
1994;DHT22;998;49.906;10.908;2024-03-06T07:02:19;8.70;99.90
1994;DHT22;998;49.906;10.908;2024-03-06T07:04:46;8.70;99.90
1994;DHT22;998;49.906;10.908;2024-03-06T07:07:14;8.80;99.90
1994;DHT22;998;49.906;10.908;2024-03-06T07:09:45;8.70;99.90
1994;DHT22;998;49.906;10.908;2024-03-06T07:12:12;9.00;99.90
1994;DHT22;998;49.906;10.908;2024-03-06T07:14:41;8.80;99.90
1994;DHT22;998;49.906;10.908;2024-03-06T07:17:08;8.70;99.90
1994;DHT22;998;49.906;10.908;2024-03-06T07:19:35;8.70;99.90
1994;DHT22;998;49.906;10.908;2024-03-06T07:22:03;8.80;99.90
1994;DHT22;998;49.906;10.908;2024-03-06T07:24:30;8.60;99.90
1994;DHT22;998;49.906;10.908;2024-03-06T07:26:57;8.90;99.90
1994;DHT22;998;49.906;10.908;2024-03-06T07:29:27;8.80;99.90
1994;DHT22;998;49.906;10.908;2024-03-06T07:31:56;8.90;99.90
1994;DHT22;998;49.906;10.908;2024-03-06T07:34:29;8.80;99.90
1994;DHT22;998;49.906;10.908;2024-03-06T07:36:56;9.10;99.90
1994;DHT22;998;49.906;10.908;2024-03-06T07:39:25;8.90;99.90
1994;DHT22;998;49.906;10.908;2024-03-06T07:41:53;9.00;99.90
1994;DHT22;998;49.906;10.908;2024-03-06T07:44:20;9.10;99.90
1994;DHT22;998;49.906;10.908;2024-03-06T07:46:48;9.00;99.90
1994;DHT22;998;49.906;10.908;2024-03-06T07:49:17;9.00;99.90
1994;DHT22;998;49.906;10.908;2024-03-06T07:51:44;9.00;99.90
1994;DHT22;998;49.906;10.908;2024-03-06T07:54:11;9.00;99.90
1994;DHT22;998;49.906;10.908;2024-03-06T07:56:39;9.00;99.90
1994;DHT22;998;49.906;10.908;2024-03-06T07:59:06;9.10;99.90
1994;DHT22;998;49.906;10.908;2024-03-06T08:01:34;9.10;99.90
1994;DHT22;998;49.906;10.908;2024-03-06T08:04:02;9.10;99.90
1994;DHT22;998;49.906;10.908;2024-03-06T08:06:31;9.10;99.90
1994;DHT22;998;49.906;10.908;2024-03-06T08:08:59;9.20;99.90
1994;DHT22;998;49.906;10.908;2024-03-06T08:11:27;9.20;99.90
1994;DHT22;998;49.906;10.908;2024-03-06T08:13:57;9.20;99.90
1994;DHT22;998;49.906;10.908;2024-03-06T08:16:25;9.20;99.90
1994;DHT22;998;49.906;10.908;2024-03-06T08:18:52;9.10;99.90
1994;DHT22;998;49.906;10.908;2024-03-06T08:21:20;9.30;99.90
1994;DHT22;998;49.906;10.908;2024-03-06T08:23:50;9.20;99.90
1994;DHT22;998;49.906;10.908;2024-03-06T08:26:18;9.30;99.90
1994;DHT22;998;49.906;10.908;2024-03-06T08:28:45;9.30;99.90
1994;DHT22;998;49.906;10.908;2024-03-06T08:31:13;9.60;99.90
1994;DHT22;998;49.906;10.908;2024-03-06T08:33:47;9.60;99.90
1994;DHT22;998;49.906;10.908;2024-03-06T08:36:15;9.30;99.90
1994;DHT22;998;49.906;10.908;2024-03-06T08:38:42;9.30;99.90
1994;DHT22;998;49.906;10.908;2024-03-06T08:41:11;9.30;99.90
1994;DHT22;998;49.906;10.908;2024-03-06T08:43:39;9.30;99.90
1994;DHT22;998;49.906;10.908;2024-03-06T08:46:06;9.30;99.90
1994;DHT22;998;49.906;10.908;2024-03-06T08:48:34;9.30;99.90
1994;DHT22;998;49.906;10.908;2024-03-06T08:51:01;9.40;99.90
1994;DHT22;998;49.906;10.908;2024-03-06T08:53:37;9.30;99.90
1994;DHT22;998;49.906;10.908;2024-03-06T08:56:05;9.30;99.90
1994;DHT22;998;49.906;10.908;2024-03-06T08:58:34;9.20;99.90
1994;DHT22;998;49.906;10.908;2024-03-06T09:01:02;9.30;99.90
1994;DHT22;998;49.906;10.908;2024-03-06T09:03:30;9.30;99.90
1994;DHT22;998;49.906;10.908;2024-03-06T09:05:57;9.30;99.90
1994;DHT22;998;49.906;10.908;2024-03-06T09:08:34;9.30;99.90
1994;DHT22;998;49.906;10.908;2024-03-06T09:11:05;9.30;99.90
1994;DHT22;998;49.906;10.908;2024-03-06T09:13:34;9.40;99.90
1994;DHT22;998;49.906;10.908;2024-03-06T09:16:01;9.40;99.90
1994;DHT22;998;49.906;10.908;2024-03-06T09:18:28;9.40;99.90
1994;DHT22;998;49.906;10.908;2024-03-06T09:20:55;9.30;99.90
1994;DHT22;998;49.906;10.908;2024-03-06T09:23:23;9.50;99.90
1994;DHT22;998;49.906;10.908;2024-03-06T09:25:52;9.50;99.90
1994;DHT22;998;49.906;10.908;2024-03-06T09:28:20;9.50;99.90
1994;DHT22;998;49.906;10.908;2024-03-06T09:30:50;9.60;99.90
1994;DHT22;998;49.906;10.908;2024-03-06T09:33:17;9.40;99.90
1994;DHT22;998;49.906;10.908;2024-03-06T09:35:44;9.60;99.90
1994;DHT22;998;49.906;10.908;2024-03-06T09:38:12;9.20;99.90
1994;DHT22;998;49.906;10.908;2024-03-06T09:40:40;9.70;99.90
1994;DHT22;998;49.906;10.908;2024-03-06T09:43:08;9.60;99.90
1994;DHT22;998;49.906;10.908;2024-03-06T09:45:36;9.50;99.90
1994;DHT22;998;49.906;10.908;2024-03-06T09:48:06;9.70;99.90
1994;DHT22;998;49.906;10.908;2024-03-06T09:50:36;9.70;99.90
1994;DHT22;998;49.906;10.908;2024-03-06T09:53:08;9.70;99.90
1994;DHT22;998;49.906;10.908;2024-03-06T09:55:39;9.80;99.90
1994;DHT22;998;49.906;10.908;2024-03-06T09:58:07;9.80;99.90
1994;DHT22;998;49.906;10.908;2024-03-06T10:00:34;9.90;99.90
1994;DHT22;998;49.906;10.908;2024-03-06T10:03:03;9.80;99.90
1994;DHT22;998;49.906;10.908;2024-03-06T10:05:32;9.90;99.90
1994;DHT22;998;49.906;10.908;2024-03-06T10:08:01;9.90;99.90
1994;DHT22;998;49.906;10.908;2024-03-06T10:10:30;10.00;99.90
1994;DHT22;998;49.906;10.908;2024-03-06T10:12:57;9.80;99.90
1994;DHT22;998;49.906;10.908;2024-03-06T10:15:26;9.90;99.90
1994;DHT22;998;49.906;10.908;2024-03-06T10:18:12;9.80;99.90
1994;DHT22;998;49.906;10.908;2024-03-06T10:20:41;9.90;99.90
1994;DHT22;998;49.906;10.908;2024-03-06T10:23:10;9.90;99.90
1994;DHT22;998;49.906;10.908;2024-03-06T10:25:38;9.90;99.90
1994;DHT22;998;49.906;10.908;2024-03-06T10:28:09;9.80;99.90
1994;DHT22;998;49.906;10.908;2024-03-06T10:30:45;9.90;99.90
1994;DHT22;998;49.906;10.908;2024-03-06T10:33:16;10.70;99.90
1994;DHT22;998;49.906;10.908;2024-03-06T10:35:47;9.90;99.90
1994;DHT22;998;49.906;10.908;2024-03-06T10:38:15;9.90;99.90
1994;DHT22;998;49.906;10.908;2024-03-06T10:40:54;9.90;99.90
1994;DHT22;998;49.906;10.908;2024-03-06T10:43:32;10.10;99.90
1994;DHT22;998;49.906;10.908;2024-03-06T10:46:01;9.90;99.90
1994;DHT22;998;49.906;10.908;2024-03-06T10:48:33;10.10;99.90
1994;DHT22;998;49.906;10.908;2024-03-06T10:51:05;10.00;99.90
1994;DHT22;998;49.906;10.908;2024-03-06T10:53:34;10.70;99.90
1994;DHT22;998;49.906;10.908;2024-03-06T10:56:04;10.40;99.90
1994;DHT22;998;49.906;10.908;2024-03-06T10:58:35;10.40;99.90
1994;DHT22;998;49.906;10.908;2024-03-06T11:01:04;10.50;99.90
1994;DHT22;998;49.906;10.908;2024-03-06T11:03:34;10.50;99.90
1994;DHT22;998;49.906;10.908;2024-03-06T11:06:05;10.50;99.90
1994;DHT22;998;49.906;10.908;2024-03-06T11:08:33;10.60;99.90
1994;DHT22;998;49.906;10.908;2024-03-06T11:11:20;10.50;99.90
1994;DHT22;998;49.906;10.908;2024-03-06T11:13:48;10.60;99.90
1994;DHT22;998;49.906;10.908;2024-03-06T11:16:16;10.80;99.90
1994;DHT22;998;49.906;10.908;2024-03-06T11:18:44;10.40;99.90
1994;DHT22;998;49.906;10.908;2024-03-06T11:21:30;10.50;99.90
1994;DHT22;998;49.906;10.908;2024-03-06T11:24:22;10.40;99.90
1994;DHT22;998;49.906;10.908;2024-03-06T11:26:57;10.50;99.90
1994;DHT22;998;49.906;10.908;2024-03-06T11:29:28;10.50;99.90
1994;DHT22;998;49.906;10.908;2024-03-06T11:32:06;10.50;99.90
1994;DHT22;998;49.906;10.908;2024-03-06T11:34:36;10.50;99.90
1994;DHT22;998;49.906;10.908;2024-03-06T11:37:07;10.50;99.90
1994;DHT22;998;49.906;10.908;2024-03-06T11:39:37;10.60;99.90
1994;DHT22;998;49.906;10.908;2024-03-06T11:42:04;10.70;99.90
1994;DHT22;998;49.906;10.908;2024-03-06T11:44:35;10.50;99.90
1994;DHT22;998;49.906;10.908;2024-03-06T11:47:04;10.50;99.90
1994;DHT22;998;49.906;10.908;2024-03-06T11:49:45;10.50;99.90
1994;DHT22;998;49.906;10.908;2024-03-06T11:52:13;10.50;99.90
1994;DHT22;998;49.906;10.908;2024-03-06T11:54:41;10.60;99.90
1994;DHT22;998;49.906;10.908;2024-03-06T11:57:08;10.70;99.90
1994;DHT22;998;49.906;10.908;2024-03-06T11:59:41;10.50;99.90
1994;DHT22;998;49.906;10.908;2024-03-06T12:02:09;10.40;99.90
1994;DHT22;998;49.906;10.908;2024-03-06T12:04:40;10.90;99.90
1994;DHT22;998;49.906;10.908;2024-03-06T12:07:08;10.70;99.90
1994;DHT22;998;49.906;10.908;2024-03-06T12:09:39;10.80;99.90
1994;DHT22;998;49.906;10.908;2024-03-06T12:12:07;10.70;99.90
1994;DHT22;998;49.906;10.908;2024-03-06T12:14:35;10.90;99.90
1994;DHT22;998;49.906;10.908;2024-03-06T12:17:16;11.10;99.90
1994;DHT22;998;49.906;10.908;2024-03-06T12:19:44;11.30;99.90
1994;DHT22;998;49.906;10.908;2024-03-06T12:22:12;11.80;99.90
1994;DHT22;998;49.906;10.908;2024-03-06T12:28:05;12.40;99.90
1994;DHT22;998;49.906;10.908;2024-03-06T12:30:52;12.80;99.90
1994;DHT22;998;49.906;10.908;2024-03-06T12:33:27;13.20;99.90
1994;DHT22;998;49.906;10.908;2024-03-06T12:36:09;13.00;99.90
1994;DHT22;998;49.906;10.908;2024-03-06T12:38:37;12.40;99.90
1994;DHT22;998;49.906;10.908;2024-03-06T12:41:06;12.10;99.90
1994;DHT22;998;49.906;10.908;2024-03-06T12:43:34;12.10;99.90
1994;DHT22;998;49.906;10.908;2024-03-06T12:46:01;12.10;99.90
1994;DHT22;998;49.906;10.908;2024-03-06T12:48:30;12.00;99.90
1994;DHT22;998;49.906;10.908;2024-03-06T12:50:57;11.90;99.90
1994;DHT22;998;49.906;10.908;2024-03-06T12:53:31;12.00;99.90
1994;DHT22;998;49.906;10.908;2024-03-06T12:55:59;12.10;99.90
1994;DHT22;998;49.906;10.908;2024-03-06T12:58:28;12.10;99.90
1994;DHT22;998;49.906;10.908;2024-03-06T13:00:57;12.00;99.90
1994;DHT22;998;49.906;10.908;2024-03-06T13:03:24;11.90;99.90
1994;DHT22;998;49.906;10.908;2024-03-06T13:05:52;11.80;99.90
1994;DHT22;998;49.906;10.908;2024-03-06T13:08:19;11.80;99.90
1994;DHT22;998;49.906;10.908;2024-03-06T13:10:49;11.70;99.90
1994;DHT22;998;49.906;10.908;2024-03-06T13:13:27;11.60;99.90
1994;DHT22;998;49.906;10.908;2024-03-06T13:15:56;11.70;99.90
1994;DHT22;998;49.906;10.908;2024-03-06T13:18:24;12.10;99.90
1994;DHT22;998;49.906;10.908;2024-03-06T13:20:51;11.80;99.90
1994;DHT22;998;49.906;10.908;2024-03-06T13:23:19;11.70;99.90
1994;DHT22;998;49.906;10.908;2024-03-06T13:25:48;11.80;99.90
1994;DHT22;998;49.906;10.908;2024-03-06T13:28:15;11.90;99.90
1994;DHT22;998;49.906;10.908;2024-03-06T13:30:44;11.90;99.90
1994;DHT22;998;49.906;10.908;2024-03-06T13:33:11;12.00;99.90
1994;DHT22;998;49.906;10.908;2024-03-06T13:35:41;12.00;99.90
1994;DHT22;998;49.906;10.908;2024-03-06T13:38:08;12.20;99.90
1994;DHT22;998;49.906;10.908;2024-03-06T13:40:35;12.40;99.90
1994;DHT22;998;49.906;10.908;2024-03-06T13:43:02;12.40;99.90
1994;DHT22;998;49.906;10.908;2024-03-06T13:45:30;12.20;99.90
1994;DHT22;998;49.906;10.908;2024-03-06T13:47:58;12.00;99.90
1994;DHT22;998;49.906;10.908;2024-03-06T13:50:25;11.90;99.90
1994;DHT22;998;49.906;10.908;2024-03-06T13:52:53;11.90;99.90
1994;DHT22;998;49.906;10.908;2024-03-06T13:55:29;11.80;99.90
1994;DHT22;998;49.906;10.908;2024-03-06T13:57:59;11.90;99.90
1994;DHT22;998;49.906;10.908;2024-03-06T14:00:27;12.10;99.90
1994;DHT22;998;49.906;10.908;2024-03-06T14:02:54;12.10;99.90
1994;DHT22;998;49.906;10.908;2024-03-06T14:05:23;12.20;99.90
1994;DHT22;998;49.906;10.908;2024-03-06T14:07:52;12.10;99.90
1994;DHT22;998;49.906;10.908;2024-03-06T14:10:19;12.10;99.90
1994;DHT22;998;49.906;10.908;2024-03-06T14:12:52;12.00;99.90
1994;DHT22;998;49.906;10.908;2024-03-06T14:15:20;11.90;99.90
1994;DHT22;998;49.906;10.908;2024-03-06T14:17:49;11.80;99.90
1994;DHT22;998;49.906;10.908;2024-03-06T14:20:27;11.80;99.90
1994;DHT22;998;49.906;10.908;2024-03-06T14:22:54;11.80;99.90
1994;DHT22;998;49.906;10.908;2024-03-06T14:25:22;11.70;99.90
1994;DHT22;998;49.906;10.908;2024-03-06T14:27:49;11.60;99.90
1994;DHT22;998;49.906;10.908;2024-03-06T14:30:17;11.70;99.90
1994;DHT22;998;49.906;10.908;2024-03-06T14:32:45;11.80;99.90
1994;DHT22;998;49.906;10.908;2024-03-06T14:35:13;11.90;99.90
1994;DHT22;998;49.906;10.908;2024-03-06T14:37:42;12.00;99.90
1994;DHT22;998;49.906;10.908;2024-03-06T14:40:10;12.30;99.90
1994;DHT22;998;49.906;10.908;2024-03-06T14:42:37;12.20;99.90
1994;DHT22;998;49.906;10.908;2024-03-06T14:45:05;12.20;99.90
1994;DHT22;998;49.906;10.908;2024-03-06T14:47:32;12.30;99.90
1994;DHT22;998;49.906;10.908;2024-03-06T14:50:00;12.30;99.90
1994;DHT22;998;49.906;10.908;2024-03-06T14:52:27;12.20;99.90
1994;DHT22;998;49.906;10.908;2024-03-06T14:54:56;12.20;99.90
1994;DHT22;998;49.906;10.908;2024-03-06T14:57:29;12.20;99.90
1994;DHT22;998;49.906;10.908;2024-03-06T14:59:56;12.20;99.90
1994;DHT22;998;49.906;10.908;2024-03-06T15:02:24;12.10;99.90
1994;DHT22;998;49.906;10.908;2024-03-06T15:04:51;12.00;99.90
1994;DHT22;998;49.906;10.908;2024-03-06T15:07:19;12.00;99.90
1994;DHT22;998;49.906;10.908;2024-03-06T15:09:47;12.00;99.90
1994;DHT22;998;49.906;10.908;2024-03-06T15:12:15;12.00;99.90
1994;DHT22;998;49.906;10.908;2024-03-06T15:14:43;12.00;99.90
1994;DHT22;998;49.906;10.908;2024-03-06T15:17:10;12.00;99.90
1994;DHT22;998;49.906;10.908;2024-03-06T15:19:37;11.70;99.90
1994;DHT22;998;49.906;10.908;2024-03-06T15:22:12;12.30;99.90
1994;DHT22;998;49.906;10.908;2024-03-06T15:24:38;12.40;99.90
1994;DHT22;998;49.906;10.908;2024-03-06T15:27:06;12.30;99.90
1994;DHT22;998;49.906;10.908;2024-03-06T15:29:34;12.30;99.90
1994;DHT22;998;49.906;10.908;2024-03-06T15:32:02;12.20;99.90
1994;DHT22;998;49.906;10.908;2024-03-06T15:34:29;12.10;99.90
1994;DHT22;998;49.906;10.908;2024-03-06T15:36:56;12.10;99.90
1994;DHT22;998;49.906;10.908;2024-03-06T15:39:24;12.10;99.90
1994;DHT22;998;49.906;10.908;2024-03-06T15:41:51;12.40;99.90
1994;DHT22;998;49.906;10.908;2024-03-06T15:44:19;12.50;99.90
1994;DHT22;998;49.906;10.908;2024-03-06T15:46:48;12.60;99.90
1994;DHT22;998;49.906;10.908;2024-03-06T15:49:30;12.70;99.90
1994;DHT22;998;49.906;10.908;2024-03-06T15:51:57;12.50;99.90
1994;DHT22;998;49.906;10.908;2024-03-06T15:54:24;12.40;99.90
1994;DHT22;998;49.906;10.908;2024-03-06T15:56:52;12.30;99.90
1994;DHT22;998;49.906;10.908;2024-03-06T15:59:18;12.30;99.90
1994;DHT22;998;49.906;10.908;2024-03-06T16:01:48;12.30;99.90
1994;DHT22;998;49.906;10.908;2024-03-06T16:04:15;12.10;99.90
1994;DHT22;998;49.906;10.908;2024-03-06T16:06:44;12.10;99.90
1994;DHT22;998;49.906;10.908;2024-03-06T16:09:12;12.00;99.90
1994;DHT22;998;49.906;10.908;2024-03-06T16:11:39;12.00;99.90
1994;DHT22;998;49.906;10.908;2024-03-06T16:14:07;12.10;99.90
1994;DHT22;998;49.906;10.908;2024-03-06T16:16:34;12.10;99.90
1994;DHT22;998;49.906;10.908;2024-03-06T16:19:03;12.10;99.90
1994;DHT22;998;49.906;10.908;2024-03-06T16:21:31;12.00;99.90
1994;DHT22;998;49.906;10.908;2024-03-06T16:23:58;12.10;99.90
1994;DHT22;998;49.906;10.908;2024-03-06T16:26:28;12.10;99.90